Time;durP1;ratioP1;P1;durP2;ratioP2;P2;SDS_P1;SDS_P2;PMS_P1;PMS_P2;Temp;Humidity;BMP_temperature;BMP_pressure;BME280_temperature;BME280_humidity;BME280_pressure;Samples;Min_cycle;Max_cycle;Signal;HPM_P1;HPM_P2
2021/06/08 00:00:49;;;;;;;6.18;3.72;;;;;;;16.23;70.96;101222.72;5028010;28;20079;-76
2021/06/08 00:03:14;;;;;;;6.28;3.55;;;;;;;16.21;70.76;101222.19;5045386;28;20473;-76
2021/06/08 00:05:40;;;;;;;5.30;3.83;;;;;;;16.16;70.67;101213.06;5010379;28;20033;-76
2021/06/08 00:08:05;;;;;;;6.57;3.72;;;;;;;16.15;70.84;101211.44;5041626;28;20032;-76
2021/06/08 00:10:31;;;;;;;4.47;3.60;;;;;;;16.08;70.88;101212.69;5040030;28;20044;-76
2021/06/08 00:12:56;;;;;;;6.95;3.65;;;;;;;16.06;70.92;101219.75;5030620;28;20025;-76
2021/06/08 00:15:22;;;;;;;6.28;3.70;;;;;;;16.03;71.05;101217.59;5024394;28;20439;-76
2021/06/08 00:17:48;;;;;;;4.97;3.70;;;;;;;16.00;70.85;101221.84;5011965;28;20030;-76
2021/06/08 00:20:14;;;;;;;5.85;3.85;;;;;;;15.98;71.53;101214.88;5025321;28;20384;-76
2021/06/08 00:22:39;;;;;;;7.72;3.88;;;;;;;15.92;70.94;101219.78;5022508;28;20447;-76
2021/06/08 00:25:05;;;;;;;7.72;3.83;;;;;;;15.90;71.23;101210.03;5018396;28;20037;-76
2021/06/08 00:27:31;;;;;;;7.80;4.03;;;;;;;15.89;71.27;101220.41;5011514;28;20457;-76
2021/06/08 00:29:56;;;;;;;7.57;4.03;;;;;;;15.82;71.20;101206.84;5024180;28;20033;-76
2021/06/08 00:32:22;;;;;;;5.05;3.50;;;;;;;15.80;71.39;101211.09;5000935;28;20033;-76
2021/06/08 00:34:47;;;;;;;6.88;3.90;;;;;;;15.78;71.50;101210.56;5031343;28;20489;-76
2021/06/08 00:37:13;;;;;;;7.60;4.30;;;;;;;15.73;71.66;101214.28;5029272;28;20037;-76
2021/06/08 00:39:38;;;;;;;6.00;3.78;;;;;;;15.71;71.91;101205.38;5028314;28;20032;-76
2021/06/08 00:42:04;;;;;;;7.47;4.03;;;;;;;15.68;71.78;101214.38;5046342;28;20029;-76
2021/06/08 00:44:29;;;;;;;8.35;3.72;;;;;;;15.63;71.76;101217.28;5030082;28;20037;-76
2021/06/08 00:46:55;;;;;;;8.05;4.18;;;;;;;15.62;72.19;101215.59;5027752;28;20029;-76
2021/06/08 00:49:20;;;;;;;6.60;4.15;;;;;;;15.58;71.77;101208.97;5026038;28;20044;-76
2021/06/08 00:51:46;;;;;;;8.63;3.78;;;;;;;15.57;71.85;101218.50;5031539;28;20052;-76
2021/06/08 00:54:12;;;;;;;7.55;4.10;;;;;;;15.55;71.93;101216.03;5030977;28;20049;-76
2021/06/08 00:56:39;;;;;;;5.07;3.75;;;;;;;15.47;72.00;101208.34;5039014;28;20512;-76
2021/06/08 00:59:04;;;;;;;7.65;3.85;;;;;;;15.49;71.49;101210.81;5025881;28;20033;-76
2021/06/08 01:01:30;;;;;;;5.47;3.60;;;;;;;15.44;71.66;101206.19;5017480;28;20359;-76
2021/06/08 01:03:56;;;;;;;5.15;3.88;;;;;;;15.38;71.82;101205.44;5011483;28;20134;-76
2021/06/08 01:06:21;;;;;;;6.88;3.90;;;;;;;15.34;72.04;101204.38;5027050;28;20040;-76
2021/06/08 01:08:47;;;;;;;5.35;4.10;;;;;;;15.30;72.14;101202.53;5032322;28;20025;-76
2021/06/08 01:11:13;;;;;;;4.85;3.70;;;;;;;15.32;71.98;101201.09;5011264;28;20036;-76
2021/06/08 01:13:41;;;;;;;6.05;4.30;;;;;;;15.28;72.18;101199.22;5002100;28;20024;-76
2021/06/08 01:16:06;;;;;;;5.35;3.83;;;;;;;15.25;72.04;101197.03;5008283;28;20087;-76
2021/06/08 01:18:32;;;;;;;5.57;4.00;;;;;;;15.22;72.02;101201.28;5024580;28;20037;-76
2021/06/08 01:21:07;;;;;;;6.35;4.07;;;;;;;15.18;72.23;101201.06;5024018;28;20033;-76
2021/06/08 01:23:33;;;;;;;5.82;4.00;;;;;;;15.22;71.61;101195.69;5050849;28;20068;-76
2021/06/08 01:25:58;;;;;;;5.57;3.55;;;;;;;15.11;71.95;101189.44;5028109;28;20041;-76
2021/06/08 01:28:24;;;;;;;8.95;4.50;;;;;;;15.16;71.83;101196.91;5020465;28;20029;-76
2021/06/08 01:30:51;;;;;;;4.70;3.97;;;;;;;15.08;72.12;101189.22;5030123;28;20036;-76
2021/06/08 01:33:17;;;;;;;7.78;4.03;;;;;;;15.03;72.49;101192.94;5024777;28;20104;-76
2021/06/08 01:35:43;;;;;;;7.50;4.22;;;;;;;15.01;72.56;101192.41;5021710;28;20038;-76
2021/06/08 01:38:08;;;;;;;4.82;3.80;;;;;;;14.95;72.29;101191.69;5005746;28;20025;-76
2021/06/08 01:40:34;;;;;;;6.55;4.25;;;;;;;14.96;72.40;101198.94;5021542;28;20465;-76
2021/06/08 01:42:59;;;;;;;6.32;4.15;;;;;;;14.91;72.33;101193.44;5015448;28;20021;-77
2021/06/08 01:45:25;;;;;;;7.03;3.97;;;;;;;14.87;72.26;101192.38;5023894;28;20021;-76
2021/06/08 01:47:51;;;;;;;5.22;3.85;;;;;;;14.84;72.42;101190.19;5025573;28;20029;-76
2021/06/08 01:50:16;;;;;;;5.97;3.95;;;;;;;14.87;72.53;101188.75;5045142;28;20095;-76
2021/06/08 01:52:43;;;;;;;5.68;3.70;;;;;;;14.81;72.24;101188.00;5025121;28;20053;-80
2021/06/08 01:55:20;;;;;;;5.10;3.92;;;;;;;14.79;72.55;101195.03;5022090;28;20022;-76
2021/06/08 01:57:53;;;;;;;4.90;3.70;;;;;;;14.75;72.28;101190.06;5028202;28;20033;-76
2021/06/08 02:00:44;;;;;;;7.70;3.83;;;;;;;14.77;72.47;101186.97;5037453;28;20507;-75
2021/06/08 02:03:19;;;;;;;6.75;4.25;;;;;;;14.74;72.66;101184.81;5010978;28;20438;-76
2021/06/08 02:06:01;;;;;;;5.07;3.72;;;;;;;14.72;72.22;101187.88;5040752;28;20025;-76
2021/06/08 02:08:37;;;;;;;6.60;3.90;;;;;;;14.69;72.98;101184.88;5019877;28;20586;-75
2021/06/08 02:11:09;;;;;;;5.82;3.83;;;;;;;14.64;72.69;101183.00;5051343;28;20033;-75
2021/06/08 02:13:37;;;;;;;6.13;4.10;;;;;;;14.58;72.64;101175.84;5039696;28;20041;-75
2021/06/08 02:16:21;;;;;;;6.68;3.97;;;;;;;14.60;72.87;101178.31;5027829;28;20041;-75
2021/06/08 02:18:48;;;;;;;6.88;4.20;;;;;;;14.56;72.71;101175.31;5040515;28;20037;-76
2021/06/08 02:21:18;;;;;;;5.78;3.85;;;;;;;14.49;72.81;101174.84;5028991;28;20484;-76
2021/06/08 02:23:44;;;;;;;6.28;4.20;;;;;;;14.48;73.10;101176.78;5041162;28;20032;-76
2021/06/08 02:26:10;;;;;;;6.80;4.03;;;;;;;14.45;73.11;101180.19;5037937;28;20481;-76
2021/06/08 02:28:37;;;;;;;9.13;3.80;;;;;;;14.43;72.90;101174.09;5030974;28;20035;-76
2021/06/08 02:31:04;;;;;;;6.25;3.88;;;;;;;14.43;72.99;101167.66;5038198;28;20116;-76
2021/06/08 02:33:29;;;;;;;8.05;4.03;;;;;;;14.41;72.95;101184.75;5041474;28;20029;-76
2021/06/08 02:35:56;;;;;;;6.57;4.57;;;;;;;14.36;72.93;101178.41;5042790;28;20029;-76
2021/06/08 02:38:22;;;;;;;5.35;4.10;;;;;;;14.34;73.22;101184.28;5034405;28;20028;-77
2021/06/08 02:40:47;;;;;;;5.05;3.58;;;;;;;14.30;72.94;101183.25;5048772;28;20029;-76
2021/06/08 02:43:13;;;;;;;6.85;4.50;;;;;;;14.26;72.97;101177.44;5029292;28;20469;-76
2021/06/08 02:45:39;;;;;;;6.03;4.00;;;;;;;14.22;73.00;101183.91;5052809;28;20040;-76
2021/06/08 02:48:05;;;;;;;6.20;3.78;;;;;;;14.25;72.79;101177.72;5042188;28;20029;-76
2021/06/08 02:50:30;;;;;;;5.15;3.65;;;;;;;14.18;73.38;101180.06;5022768;28;20571;-75
2021/06/08 02:52:56;;;;;;;5.20;3.67;;;;;;;14.16;73.44;101179.53;5046299;28;20037;-76
2021/06/08 02:55:23;;;;;;;4.75;3.63;;;;;;;14.13;73.44;101177.34;5036567;28;20034;-75
2021/06/08 02:57:51;;;;;;;6.20;3.78;;;;;;;14.12;72.91;101182.09;5046946;28;20486;-75
2021/06/08 03:00:17;;;;;;;5.00;3.60;;;;;;;14.08;73.49;101178.25;5041415;28;20475;-75
2021/06/08 03:02:42;;;;;;;4.78;3.92;;;;;;;14.03;73.49;101175.53;5022595;28;20021;-75
2021/06/08 03:05:15;;;;;;;5.45;4.05;;;;;;;14.04;73.06;101178.03;5043305;28;20036;-76
2021/06/08 03:07:40;;;;;;;6.63;4.22;;;;;;;14.01;73.50;101178.63;5029495;28;20036;-75
2021/06/08 03:10:07;;;;;;;5.68;4.05;;;;;;;13.99;73.67;101180.91;5009053;28;20033;-75
2021/06/08 03:12:34;;;;;;;6.25;4.40;;;;;;;13.98;73.49;101176.41;5050693;28;20041;-75
2021/06/08 03:15:02;;;;;;;5.78;3.97;;;;;;;13.97;73.66;101174.78;5043170;28;20054;-75
2021/06/08 03:17:29;;;;;;;4.57;3.72;;;;;;;13.91;73.56;101183.53;5051265;28;20060;-75
2021/06/08 03:19:56;;;;;;;4.57;3.47;;;;;;;13.93;73.71;101176.53;5016051;28;20028;-75
2021/06/08 03:22:21;;;;;;;4.70;3.63;;;;;;;13.90;74.08;101177.13;5031651;28;20101;-75
2021/06/08 03:24:49;;;;;;;4.93;3.90;;;;;;;13.89;73.15;101181.03;5026365;28;20045;-75
2021/06/08 03:27:14;;;;;;;4.68;3.67;;;;;;;13.88;73.70;101179.38;5045196;28;20104;-75
2021/06/08 03:29:40;;;;;;;6.93;4.10;;;;;;;13.83;74.06;101188.63;5020840;28;20167;-75
2021/06/08 03:32:06;;;;;;;5.28;3.80;;;;;;;13.80;74.16;101180.88;5048730;28;20031;-75
2021/06/08 03:34:32;;;;;;;3.58;3.22;;;;;;;13.80;73.63;101185.63;5040992;28;20048;-75
2021/06/08 03:36:58;;;;;;;3.88;3.15;;;;;;;13.80;73.54;101194.00;5037795;28;20029;-75
2021/06/08 03:39:24;;;;;;;4.35;3.40;;;;;;;13.75;73.68;101191.28;5030818;28;20504;-75
2021/06/08 03:41:49;;;;;;;3.70;3.20;;;;;;;13.71;73.56;101187.44;5020454;28;20030;-75
2021/06/08 03:44:15;;;;;;;5.25;3.78;;;;;;;13.68;73.80;101185.22;5030382;28;20026;-75
2021/06/08 03:46:41;;;;;;;5.03;3.70;;;;;;;13.67;73.97;101181.59;5029346;28;20453;-75
2021/06/08 03:49:07;;;;;;;4.05;3.33;;;;;;;13.64;73.80;101184.97;5020535;28;20104;-76
2021/06/08 03:51:32;;;;;;;4.28;3.50;;;;;;;13.68;73.43;101179.63;5036369;28;20044;-75
2021/06/08 03:53:58;;;;;;;4.10;2.75;;;;;;;13.61;73.71;101180.81;5043147;28;20038;-75
2021/06/08 03:56:24;;;;;;;3.60;2.95;;;;;;;13.57;73.99;101182.56;5040938;28;20084;-75
2021/06/08 03:58:50;;;;;;;3.15;2.58;;;;;;;13.53;73.86;101187.06;5041707;28;20367;-76
2021/06/08 04:01:15;;;;;;;4.70;3.20;;;;;;;13.55;73.54;101182.03;5021859;28;20416;-75
2021/06/08 04:03:41;;;;;;;3.47;2.97;;;;;;;13.49;73.83;101187.97;5029846;28;20034;-75
2021/06/08 04:06:06;;;;;;;3.47;2.83;;;;;;;13.45;73.91;101182.13;5043549;28;20042;-75
2021/06/08 04:08:32;;;;;;;3.63;2.58;;;;;;;13.47;73.85;101188.25;5048261;28;20491;-75
2021/06/08 04:10:57;;;;;;;6.95;3.22;;;;;;;13.44;73.80;101182.44;5045153;28;20372;-67
2021/06/08 04:13:23;;;;;;;4.05;2.72;;;;;;;13.44;73.92;101183.28;5028853;28;20044;-72
2021/06/08 04:15:49;;;;;;;33.85;19.13;;;;;;;13.44;74.04;101188.03;5011750;28;20029;-76
2021/06/08 04:18:15;;;;;;;20.52;12.80;;;;;;;13.39;74.41;101178.56;5026058;28;20028;-75
2021/06/08 04:20:40;;;;;;;16.88;11.02;;;;;;;13.46;74.06;101188.56;5004449;28;20041;-76
2021/06/08 04:23:07;;;;;;;14.02;8.95;;;;;;;13.36;74.31;101195.09;5025398;28;20029;-76
2021/06/08 04:25:33;;;;;;;12.52;7.80;;;;;;;13.40;74.88;101191.41;5020732;28;20506;-75
2021/06/08 04:27:58;;;;;;;11.75;7.15;;;;;;;13.43;75.26;101187.22;5013648;28;20084;-75
2021/06/08 04:30:24;;;;;;;11.57;7.53;;;;;;;13.43;75.08;101192.78;5048931;28;20036;-76
2021/06/08 04:32:50;;;;;;;11.80;6.63;;;;;;;13.42;74.99;101185.53;5031551;28;20025;-75
2021/06/08 04:35:16;;;;;;;9.50;6.45;;;;;;;13.47;76.05;101196.63;5027016;28;20025;-75
2021/06/08 04:37:42;;;;;;;7.80;5.60;;;;;;;13.49;76.46;101197.16;5011240;28;20032;-76
2021/06/08 04:40:08;;;;;;;7.88;5.25;;;;;;;13.52;76.71;101199.38;5024783;28;20037;-75
2021/06/08 04:42:36;;;;;;;7.07;4.85;;;;;;;13.60;76.18;101203.47;5043823;28;20031;-75
2021/06/08 04:45:02;;;;;;;6.78;4.38;;;;;;;13.62;77.46;101198.41;5022800;28;20034;-76
2021/06/08 04:47:27;;;;;;;6.13;4.35;;;;;;;13.70;77.40;101196.91;5044982;28;20504;-75
2021/06/08 04:49:53;;;;;;;4.88;3.80;;;;;;;13.78;77.81;101199.03;5026944;28;20068;-76
2021/06/08 04:52:18;;;;;;;5.80;3.85;;;;;;;13.85;78.62;101202.31;5040515;28;20037;-75
2021/06/08 04:54:44;;;;;;;5.60;4.05;;;;;;;13.94;78.97;101206.09;5040818;28;20497;-76
2021/06/08 04:57:11;;;;;;;5.82;4.30;;;;;;;14.04;78.93;101200.38;5009704;28;20022;-76
2021/06/08 04:59:48;;;;;;;5.57;4.40;;;;;;;14.15;80.67;101205.81;5051924;28;20087;-75
2021/06/08 05:02:19;;;;;;;5.68;4.32;;;;;;;14.26;78.31;101208.16;5029836;28;20088;-75
2021/06/08 05:04:45;;;;;;;5.13;3.78;;;;;;;14.37;77.10;101203.22;5038094;28;20032;-76
2021/06/08 05:07:12;;;;;;;6.13;4.05;;;;;;;14.49;76.02;101206.41;5043118;28;20029;-75
2021/06/08 05:09:39;;;;;;;7.68;5.18;;;;;;;14.64;74.71;101201.75;5028233;28;20030;-69
2021/06/08 05:12:07;;;;;;;9.77;5.97;;;;;;;14.80;74.84;101205.94;5025543;28;20111;-69
2021/06/08 05:14:33;;;;;;;11.18;7.13;;;;;;;14.97;75.05;101206.19;5038547;28;20033;-68
2021/06/08 05:16:58;;;;;;;9.70;6.55;;;;;;;15.11;74.71;101208.19;5032818;28;20059;-69
2021/06/08 05:19:24;;;;;;;9.85;6.22;;;;;;;15.25;74.39;101211.84;5041816;28;20068;-69
2021/06/08 05:21:49;;;;;;;8.18;5.60;;;;;;;15.40;74.41;101214.34;5052721;28;20036;-69
2021/06/08 05:24:15;;;;;;;7.07;4.90;;;;;;;15.57;74.32;101218.50;5025164;28;20457;-69
2021/06/08 05:26:42;;;;;;;8.82;4.38;;;;;;;15.74;74.23;101215.97;5045526;28;20479;-69
2021/06/08 05:29:07;;;;;;;4.90;3.58;;;;;;;15.89;74.01;101216.78;5049288;28;20049;-68
2021/06/08 05:31:33;;;;;;;5.07;3.30;;;;;;;16.06;74.00;101222.56;5007963;28;20036;-68
2021/06/08 05:33:59;;;;;;;5.45;3.28;;;;;;;16.21;73.55;101215.78;5027874;28;20032;-68
2021/06/08 05:36:31;;;;;;;4.00;2.90;;;;;;;16.39;73.72;101219.56;5010352;28;20032;-69
2021/06/08 05:38:57;;;;;;;3.50;2.95;;;;;;;16.56;72.83;101221.69;5004475;28;20026;-69
2021/06/08 05:41:22;;;;;;;3.42;2.40;;;;;;;16.74;72.55;101224.34;5027266;28;20048;-69
2021/06/08 05:43:48;;;;;;;3.30;3.00;;;;;;;16.91;72.53;101222.81;5025941;28;20033;-69
2021/06/08 05:46:13;;;;;;;4.25;2.53;;;;;;;17.08;71.49;101220.13;5037985;28;20034;-69
2021/06/08 05:48:39;;;;;;;3.85;2.95;;;;;;;17.28;73.66;101221.56;5018807;28;20032;-75
2021/06/08 05:51:05;;;;;;;5.20;2.78;;;;;;;17.41;71.51;101225.41;5025952;28;20055;-74
2021/06/08 05:53:31;;;;;;;3.50;2.63;;;;;;;17.63;70.33;101230.13;5022657;28;20032;-74
2021/06/08 05:55:57;;;;;;;3.00;2.70;;;;;;;17.79;70.24;101222.94;5024447;28;20036;-74
2021/06/08 05:58:26;;;;;;;3.05;2.17;;;;;;;17.99;69.14;101226.31;5018580;28;20026;-74
2021/06/08 06:00:52;;;;;;;2.30;2.00;;;;;;;18.18;68.17;101220.41;5026140;28;20033;-74
2021/06/08 06:03:18;;;;;;;3.38;1.88;;;;;;;18.35;67.78;101219.59;5023512;28;20092;-74
2021/06/08 06:05:44;;;;;;;3.13;2.00;;;;;;;18.51;67.66;101224.41;5029482;28;20056;-74
2021/06/08 06:08:09;;;;;;;2.28;1.88;;;;;;;18.70;66.88;101220.44;5025647;28;20044;-74
2021/06/08 06:10:35;;;;;;;2.10;1.90;;;;;;;18.86;67.08;101227.25;5022648;28;20022;-74
2021/06/08 06:13:01;;;;;;;2.65;2.05;;;;;;;19.02;66.56;101227.53;5047796;28;20018;-74
2021/06/08 06:15:28;;;;;;;4.22;2.28;;;;;;;19.19;66.94;101221.88;5028510;28;20112;-73
2021/06/08 06:17:53;;;;;;;2.83;2.28;;;;;;;19.33;66.97;101232.91;5004710;28;20397;-73
2021/06/08 06:20:19;;;;;;;3.33;2.25;;;;;;;19.51;66.95;101228.06;5027216;28;20037;-73
2021/06/08 06:22:44;;;;;;;5.35;2.00;;;;;;;19.66;66.70;101229.53;5007920;28;20055;-76
2021/06/08 06:25:11;;;;;;;6.05;2.90;;;;;;;19.81;66.87;101228.13;5028825;28;20568;-77
2021/06/08 06:27:40;;;;;;;3.15;1.83;;;;;;;19.97;65.21;101229.19;5044787;28;20029;-77
2021/06/08 06:30:07;;;;;;;3.53;2.20;;;;;;;20.11;65.55;101234.56;5038714;28;20035;-77
2021/06/08 06:32:33;;;;;;;3.95;2.30;;;;;;;20.28;65.68;101228.84;5022863;28;20528;-77
2021/06/08 06:34:59;;;;;;;3.55;2.65;;;;;;;20.42;65.68;101228.59;5042710;28;20481;-77
2021/06/08 06:37:24;;;;;;;3.25;1.95;;;;;;;20.55;64.84;101226.66;5017687;28;20030;-74
2021/06/08 06:39:51;;;;;;;4.43;1.70;;;;;;;20.72;64.12;101232.16;5044464;28;20394;-82
2021/06/08 06:42:17;;;;;;;3.92;2.67;;;;;;;20.85;65.34;101229.41;4993731;28;20052;-72
2021/06/08 06:44:42;;;;;;;3.33;2.30;;;;;;;21.00;64.38;101220.28;4999901;28;20030;-73
2021/06/08 06:47:08;;;;;;;5.38;3.15;;;;;;;21.21;64.45;101223.06;5013779;28;20025;-77
2021/06/08 06:49:33;;;;;;;5.00;2.03;;;;;;;21.34;63.40;101230.38;5041342;28;20031;-80
2021/06/08 06:51:59;;;;;;;2.33;2.00;;;;;;;21.51;63.02;101237.88;5022104;28;20045;-79
2021/06/08 06:54:25;;;;;;;2.92;2.00;;;;;;;21.65;62.79;101237.53;5042693;28;20461;-79
2021/06/08 06:56:50;;;;;;;2.08;1.45;;;;;;;21.78;62.47;101235.53;5003290;28;20025;-79
2021/06/08 06:59:16;;;;;;;3.33;2.15;;;;;;;21.86;62.81;101240.22;5028427;28;20084;-85
2021/06/08 07:01:41;;;;;;;2.38;1.90;;;;;;;21.97;62.90;101244.25;5011798;28;20385;-78
2021/06/08 07:04:07;;;;;;;3.20;2.78;;;;;;;22.00;63.19;101237.88;5035099;28;20095;-80
2021/06/08 07:06:33;;;;;;;3.03;1.90;;;;;;;22.23;62.20;101234.56;5028788;28;20094;-79
2021/06/08 07:08:58;;;;;;;4.97;2.45;;;;;;;22.35;62.39;101234.56;5025547;28;20036;-79
2021/06/08 07:11:24;;;;;;;3.05;2.15;;;;;;;22.50;61.84;101233.00;5037034;28;20055;-79
2021/06/08 07:13:50;;;;;;;3.05;2.35;;;;;;;22.53;62.12;101237.94;5032684;28;20030;-79
2021/06/08 07:16:16;;;;;;;3.35;2.70;;;;;;;22.74;61.43;101229.28;5040624;28;20491;-79
2021/06/08 07:18:46;;;;;;;2.72;1.90;;;;;;;22.91;61.11;101233.81;5035863;28;20478;-85
2021/06/08 07:21:12;;;;;;;3.28;1.45;;;;;;;23.05;60.17;101230.59;5027364;28;20028;-79
2021/06/08 07:23:37;;;;;;;4.35;1.95;;;;;;;23.14;60.48;101226.38;5009179;28;20386;-81
2021/06/08 07:26:04;;;;;;;2.30;1.33;;;;;;;23.32;59.74;101228.91;5013445;28;20045;-81
2021/06/08 07:28:31;;;;;;;2.72;1.65;;;;;;;23.44;59.93;101236.50;5012493;28;20369;-82
2021/06/08 07:30:56;;;;;;;3.53;1.83;;;;;;;23.56;59.79;101234.38;5028433;28;20485;-81
2021/06/08 07:33:27;;;;;;;4.00;2.22;;;;;;;23.69;59.70;101229.47;5034271;28;20036;-81
2021/06/08 07:35:54;;;;;;;2.40;1.60;;;;;;;23.85;59.47;101235.16;5012846;28;20029;-81
2021/06/08 07:38:27;;;;;;;3.20;2.42;;;;;;;23.99;59.46;101229.03;5038920;28;20082;-80
2021/06/08 07:40:59;;;;;;;4.57;2.20;;;;;;;24.16;59.35;101231.47;5043587;28;20033;-80
2021/06/08 07:43:28;;;;;;;2.88;2.00;;;;;;;24.29;58.81;101227.31;5004878;28;20512;-80
2021/06/08 07:45:53;;;;;;;2.85;2.05;;;;;;;24.37;58.58;101235.97;5034080;28;20036;-80
2021/06/08 07:48:24;;;;;;;3.60;1.40;;;;;;;24.57;57.80;101231.97;5041661;28;20029;-81
2021/06/08 07:50:50;;;;;;;4.35;2.38;;;;;;;24.64;58.96;101226.47;5040593;28;20053;-82
2021/06/08 07:53:17;;;;;;;2.78;1.75;;;;;;;24.86;57.78;101224.09;5025698;28;20030;-82
2021/06/08 07:55:43;;;;;;;4.28;2.00;;;;;;;24.96;57.96;101220.63;5032459;28;20035;-81
2021/06/08 07:58:10;;;;;;;3.88;2.38;;;;;;;25.09;57.88;101219.25;5000852;28;20034;-82
2021/06/08 08:00:35;;;;;;;1.88;1.48;;;;;;;25.33;56.97;101214.47;5030133;28;20037;-81
2021/06/08 08:05:45;;;;;;;1.88;1.52;;;;;;;25.68;56.19;101219.13;5036844;28;20129;-81
2021/06/08 08:08:13;;;;;;;2.55;1.52;;;;;;;25.83;55.76;101221.06;5026031;28;20037;-81
2021/06/08 08:10:39;;;;;;;3.85;1.40;;;;;;;25.97;55.27;101211.94;5020874;28;20494;-82
2021/06/08 08:13:05;;;;;;;2.30;1.23;;;;;;;26.13;55.04;101217.44;5014223;28;20119;-82
2021/06/08 08:15:31;;;;;;;2.25;1.55;;;;;;;26.27;54.82;101215.66;5025229;28;20032;-82
2021/06/08 08:17:56;;;;;;;3.53;1.55;;;;;;;26.40;54.35;101212.56;5027609;28;20040;-81
2021/06/08 08:20:52;;;;;;;4.20;1.90;;;;;;;26.40;54.00;101213.38;5045871;28;20477;-81
2021/06/08 08:23:17;;;;;;;3.80;1.60;;;;;;;26.58;54.15;101212.81;5038514;28;20087;-82
2021/06/08 08:25:43;;;;;;;2.92;1.42;;;;;;;26.73;53.97;101200.41;5026677;28;20029;-82
2021/06/08 08:28:09;;;;;;;3.67;2.03;;;;;;;26.83;53.95;101208.28;5023479;28;20034;-83
2021/06/08 08:30:35;;;;;;;3.83;1.67;;;;;;;26.98;52.97;101206.41;5040294;28;20063;-82
2021/06/08 08:33:00;;;;;;;3.97;1.67;;;;;;;27.12;53.18;101205.72;5032577;28;20433;-82
2021/06/08 08:35:26;;;;;;;5.35;2.00;;;;;;;27.25;52.26;101206.31;5042925;28;20033;-79
2021/06/08 08:37:53;;;;;;;5.50;2.30;;;;;;;27.35;52.16;101203.56;5051666;28;20067;-80
2021/06/08 08:40:18;;;;;;;2.33;2.13;;;;;;;27.48;51.92;101209.78;5026411;28;20030;-81
2021/06/08 08:42:45;;;;;;;2.88;1.77;;;;;;;27.60;52.11;101203.78;5043055;28;20377;-80
2021/06/08 08:45:12;;;;;;;2.83;1.58;;;;;;;27.72;51.69;101201.84;5033884;28;20071;-81
2021/06/08 08:47:38;;;;;;;3.17;1.60;;;;;;;27.84;51.76;101205.25;4990817;28;20339;-82
2021/06/08 08:50:05;;;;;;;3.00;1.67;;;;;;;27.93;51.28;101201.22;4989747;28;20051;-82
2021/06/08 08:52:31;;;;;;;5.53;2.83;;;;;;;27.81;50.11;101199.50;5025512;28;20037;-82
2021/06/08 08:54:56;;;;;;;4.63;2.30;;;;;;;27.83;50.70;101197.91;5025355;28;20449;-82
2021/06/08 08:57:23;;;;;;;6.68;2.00;;;;;;;28.08;50.74;101197.22;5019439;28;20064;-81
2021/06/08 08:59:48;;;;;;;9.18;2.70;;;;;;;28.09;50.28;101195.22;5040216;28;20033;-80
2021/06/08 09:02:14;;;;;;;5.20;2.20;;;;;;;28.27;50.38;101199.00;5041998;28;20035;-83
2021/06/08 09:04:40;;;;;;;4.20;2.40;;;;;;;28.11;50.51;101192.78;5044845;28;20030;-82
2021/06/08 09:07:05;;;;;;;4.90;1.98;;;;;;;28.39;50.86;101192.13;5030914;28;20029;-82
2021/06/08 09:09:31;;;;;;;2.75;2.15;;;;;;;28.49;49.85;101188.53;5026811;28;20456;-81
2021/06/08 09:11:59;;;;;;;4.35;2.58;;;;;;;28.53;49.79;101200.81;5035134;28;20040;-82
2021/06/08 09:14:24;;;;;;;5.57;2.28;;;;;;;28.48;49.57;101196.28;5040886;28;20036;-79
2021/06/08 09:16:50;;;;;;;4.13;1.90;;;;;;;28.60;50.17;101186.53;5035506;28;20029;-81
2021/06/08 09:19:15;;;;;;;4.72;2.20;;;;;;;28.59;49.64;101196.34;5008645;28;20030;-83
2021/06/08 09:21:43;;;;;;;4.28;1.50;;;;;;;28.76;49.42;101194.78;5020383;28;20115;-81
2021/06/08 09:24:19;;;;;;;5.50;1.90;;;;;;;28.91;49.97;101195.63;5031823;28;20032;-80
2021/06/08 09:26:59;;;;;;;3.45;1.83;;;;;;;29.07;49.43;101187.53;5040576;28;20086;-81
2021/06/08 09:29:44;;;;;;;3.25;1.60;;;;;;;29.13;48.61;101183.06;5036799;28;20025;-82
2021/06/08 09:32:16;;;;;;;2.40;1.33;;;;;;;29.31;48.34;101188.81;5028143;28;20033;-81
2021/06/08 09:35:01;;;;;;;5.40;1.67;;;;;;;29.44;46.79;101179.81;5049781;28;20035;-81
2021/06/08 09:37:36;;;;;;;3.20;1.35;;;;;;;29.60;47.46;101168.78;5026851;28;20798;-81
2021/06/08 09:40:23;;;;;;;6.80;1.48;;;;;;;29.78;47.01;101174.53;5001211;28;20061;-81
2021/06/08 09:42:51;;;;;;;2.90;1.48;;;;;;;29.93;47.60;101175.34;5035612;28;20057;-82
2021/06/08 09:45:23;;;;;;;2.78;1.20;;;;;;;30.05;47.93;101172.84;5002927;28;20025;-81
2021/06/08 09:47:59;;;;;;;3.80;1.60;;;;;;;30.22;46.90;101173.25;5003687;28;20029;-82
2021/06/08 09:50:29;;;;;;;4.72;1.40;;;;;;;30.37;46.61;101165.41;5043657;28;20076;-82
2021/06/08 09:53:17;;;;;;;3.00;1.50;;;;;;;30.53;46.31;101167.81;5006359;28;20071;-83
2021/06/08 09:55:56;;;;;;;2.65;1.33;;;;;;;30.61;45.43;101161.63;5019669;28;20115;-83
2021/06/08 09:58:22;;;;;;;3.90;1.20;;;;;;;30.76;45.66;101159.53;5039540;28;20136;-82
2021/06/08 10:01:07;;;;;;;2.28;1.40;;;;;;;30.88;45.67;101164.00;5022519;28;20033;-82
2021/06/08 10:03:44;;;;;;;3.33;1.20;;;;;;;31.01;45.35;101168.03;5006758;28;20021;-81
2021/06/08 10:06:23;;;;;;;1.58;1.30;;;;;;;31.18;44.59;101163.41;5015953;28;20041;-82
2021/06/08 10:09:09;;;;;;;1.70;0.95;;;;;;;31.31;44.09;101161.66;5037260;28;20034;-83
2021/06/08 10:11:36;;;;;;;1.80;0.90;;;;;;;31.39;42.34;101163.25;5034059;28;20032;-83
2021/06/08 10:14:17;;;;;;;2.03;1.00;;;;;;;31.59;41.53;101162.69;5015114;28;20033;-82
2021/06/08 10:16:43;;;;;;;2.15;0.90;;;;;;;31.70;41.12;101157.66;5026956;28;20028;-83
2021/06/08 10:19:10;;;;;;;2.25;1.00;;;;;;;31.81;41.39;101149.75;5023911;28;20029;-82
2021/06/08 10:21:46;;;;;;;3.85;1.10;;;;;;;31.97;41.67;101151.28;5028406;28;20034;-82
2021/06/08 10:24:19;;;;;;;2.65;1.10;;;;;;;32.13;40.31;101151.53;5055934;28;20021;-81
2021/06/08 10:26:52;;;;;;;1.67;0.90;;;;;;;32.23;39.34;101147.72;5024987;28;20030;-82
2021/06/08 10:29:25;;;;;;;3.42;0.90;;;;;;;32.38;40.32;101142.59;5035912;28;20041;-82
2021/06/08 10:31:51;;;;;;;3.03;1.08;;;;;;;32.48;39.61;101149.47;5039158;28;20037;-82
2021/06/08 10:34:20;;;;;;;1.98;1.00;;;;;;;32.51;39.09;101142.88;5037538;28;20076;-81
2021/06/08 10:36:48;;;;;;;1.92;1.13;;;;;;;32.50;39.44;101144.13;5024761;28;20029;-81
2021/06/08 10:39:16;;;;;;;2.65;1.13;;;;;;;32.44;38.68;101145.81;5034972;28;20061;-81
2021/06/08 10:41:43;;;;;;;2.63;1.08;;;;;;;32.40;38.36;101137.25;5010035;28;20025;-81
2021/06/08 10:44:22;;;;;;;2.70;1.00;;;;;;;32.30;39.07;101143.94;5027296;28;20029;-81
2021/06/08 10:46:52;;;;;;;2.75;1.30;;;;;;;31.89;39.07;101133.28;5024392;28;20124;-82
2021/06/08 10:49:32;;;;;;;3.00;1.20;;;;;;;31.80;40.11;101130.91;5052603;28;20801;-81
2021/06/08 10:52:08;;;;;;;1.08;0.80;;;;;;;31.94;40.36;101134.91;5045152;28;20115;-75
2021/06/08 10:54:41;;;;;;;2.08;1.10;;;;;;;31.95;40.27;101133.66;5050784;28;20063;-75
2021/06/08 10:57:12;;;;;;;3.97;1.10;;;;;;;32.01;39.31;101123.31;5044228;28;20465;-75
2021/06/08 10:59:39;;;;;;;3.70;1.00;;;;;;;32.12;38.79;101128.94;5006432;28;20450;-76
2021/06/08 11:02:06;;;;;;;1.58;1.00;;;;;;;32.20;38.80;101124.75;5036172;28;20120;-76
2021/06/08 11:04:52;;;;;;;2.58;1.17;;;;;;;32.27;39.18;101130.44;5024122;28;20081;-76
2021/06/08 11:07:50;;;;;;;1.92;1.10;;;;;;;32.26;39.34;101125.91;5025765;28;20034;-76
2021/06/08 11:10:25;;;;;;;4.70;1.40;;;;;;;32.27;39.41;101131.22;5027829;28;20033;-76
2021/06/08 11:13:08;;;;;;;1.70;1.15;;;;;;;32.04;40.19;101128.25;5044617;28;20069;-77
2021/06/08 11:15:40;;;;;;;3.13;1.10;;;;;;;32.04;40.67;101129.06;5044922;28;20041;-77
2021/06/08 11:18:18;;;;;;;1.45;1.17;;;;;;;31.90;39.78;101113.97;5050501;28;20112;-77
2021/06/08 11:20:44;;;;;;;3.00;0.95;;;;;;;31.88;38.86;101122.22;5045295;28;20034;-77
2021/06/08 11:23:10;;;;;;;2.90;0.80;;;;;;;31.81;39.27;101123.91;5032874;28;20103;-76
2021/06/08 11:25:42;;;;;;;1.42;0.85;;;;;;;31.81;39.26;101126.78;5043035;28;20033;-77
2021/06/08 11:28:11;;;;;;;4.80;1.33;;;;;;;31.74;38.54;101126.88;5030919;28;20064;-77
2021/06/08 11:30:42;;;;;;;2.33;0.90;;;;;;;31.58;39.05;101115.94;5024733;28;20025;-76